createdAt,value
2022-10-28T00:01:13.321Z,4.45
2022-10-28T00:03:45.397Z,6.40
2022-10-28T00:06:20.421Z,4.90
2022-10-28T00:08:47.262Z,4.15
2022-10-28T00:11:26.404Z,2.53
2022-10-28T00:13:54.420Z,5.47
2022-10-28T00:16:24.951Z,11.80
2022-10-28T00:18:53.927Z,5.25
2022-10-28T00:21:25.058Z,3.85
2022-10-28T00:23:52.093Z,4.63
2022-10-28T00:26:22.862Z,3.55
2022-10-28T00:28:52.188Z,5.97
2022-10-28T00:31:24.418Z,3.08
2022-10-28T00:33:51.297Z,6.82
2022-10-28T00:36:26.613Z,3.30
2022-10-28T00:38:54.753Z,4.25
2022-10-28T00:41:30.445Z,4.93
2022-10-28T00:44:02.156Z,4.90
2022-10-28T00:46:41.236Z,3.35
2022-10-28T00:49:39.142Z,4.28
2022-10-28T00:54:41.392Z,4.20
2022-10-28T00:57:13.413Z,4.13
2022-10-28T00:59:45.468Z,3.33
2022-10-28T01:02:19.551Z,4.65
2022-10-28T01:04:47.176Z,4.47
2022-10-28T01:07:17.783Z,5.95
2022-10-28T01:09:44.578Z,2.92
2022-10-28T01:12:35.225Z,6.00
2022-10-28T01:15:16.636Z,3.92
2022-10-28T01:17:56.046Z,4.75
2022-10-28T01:20:53.822Z,4.68
2022-10-28T01:23:28.019Z,3.08
2022-10-28T01:26:21.958Z,5.28
2022-10-28T01:29:03.336Z,4.10
2022-10-28T01:31:48.868Z,5.13
2022-10-28T01:34:29.526Z,3.20
2022-10-28T01:37:02.832Z,6.60
2022-10-28T01:39:39.093Z,7.53
2022-10-28T01:42:25.569Z,5.45
2022-10-28T01:45:10.360Z,4.57
2022-10-28T01:47:50.777Z,3.78
2022-10-28T01:50:46.836Z,4.05
2022-10-28T01:53:17.166Z,6.38
2022-10-28T01:55:49.943Z,5.95
2022-10-28T01:58:23.502Z,6.13
2022-10-28T02:00:53.019Z,3.35
2022-10-28T02:03:19.856Z,3.88
2022-10-28T02:05:48.597Z,7.40
2022-10-28T02:08:18.070Z,6.43
2022-10-28T02:10:55.263Z,5.78
2022-10-28T02:13:25.371Z,3.90
2022-10-28T02:15:58.177Z,8.40
2022-10-28T02:18:43.335Z,3.75
2022-10-28T02:21:30.318Z,5.72
2022-10-28T02:24:10.377Z,5.07
2022-10-28T02:26:51.616Z,9.65
2022-10-28T02:29:32.746Z,3.20
2022-10-28T02:32:05.047Z,4.65
2022-10-28T02:34:35.432Z,3.90
2022-10-28T02:37:06.813Z,5.38
2022-10-28T02:39:39.581Z,4.10
2022-10-28T02:42:28.693Z,5.97
2022-10-28T02:45:00.321Z,6.60
2022-10-28T02:47:30.376Z,2.80
2022-10-28T02:50:01.435Z,5.95
2022-10-28T02:52:30.945Z,7.53
2022-10-28T02:55:01.063Z,7.20
2022-10-28T02:57:35.358Z,2.22
2022-10-28T03:00:07.301Z,5.60
2022-10-28T03:02:34.136Z,6.47
2022-10-28T03:05:00.638Z,4.60
2022-10-28T03:07:33.699Z,5.70
2022-10-28T03:10:00.238Z,5.18
2022-10-28T03:12:38.511Z,6.53
2022-10-28T03:15:05.512Z,7.50
2022-10-28T03:17:32.347Z,8.38
2022-10-28T03:20:00.325Z,4.63
2022-10-28T03:22:29.355Z,6.93
2022-10-28T03:24:55.966Z,3.72
2022-10-28T03:27:22.552Z,3.47
2022-10-28T03:29:49.131Z,4.28
2022-10-28T03:32:17.067Z,6.22
2022-10-28T03:34:43.659Z,4.45
2022-10-28T03:37:10.374Z,7.10
2022-10-28T03:39:36.926Z,3.00
2022-10-28T03:42:03.503Z,4.47
2022-10-28T03:44:30.096Z,4.38
2022-10-28T03:46:56.714Z,3.83
2022-10-28T03:49:23.400Z,3.00
2022-10-28T03:51:50.052Z,5.38
2022-10-28T03:54:16.703Z,2.88
2022-10-28T03:56:43.241Z,3.40
2022-10-28T03:59:10.144Z,2.88
2022-10-28T04:01:36.852Z,9.48
2022-10-28T04:04:06.315Z,3.47
2022-10-28T04:06:33.925Z,6.50
2022-10-28T04:09:00.534Z,3.47
2022-10-28T04:11:27.088Z,3.05
2022-10-28T04:13:55.612Z,3.65
2022-10-28T04:16:24.285Z,4.95
2022-10-28T04:18:53.003Z,3.85
2022-10-28T04:21:19.721Z,4.28
2022-10-28T04:23:47.210Z,4.03
2022-10-28T04:26:14.290Z,4.45
2022-10-28T04:28:43.184Z,4.30
2022-10-28T04:31:12.175Z,3.20
2022-10-28T04:33:39.737Z,3.83
2022-10-28T04:36:06.516Z,3.22
2022-10-28T04:38:34.395Z,4.57
2022-10-28T04:41:00.843Z,3.88
2022-10-28T04:43:27.319Z,6.65
2022-10-28T04:45:53.831Z,3.03
2022-10-28T04:48:20.811Z,3.72
2022-10-28T04:50:47.707Z,4.07
2022-10-28T04:53:16.099Z,3.88
2022-10-28T04:55:42.513Z,3.50
2022-10-28T04:58:09.810Z,3.45
2022-10-28T05:00:36.239Z,2.22
2022-10-28T05:03:03.567Z,4.90
2022-10-28T05:05:32.046Z,3.65
2022-10-28T05:07:58.752Z,2.35
2022-10-28T05:10:25.287Z,4.65
2022-10-28T05:12:51.684Z,2.67
2022-10-28T05:15:18.122Z,2.33
2022-10-28T05:17:46.225Z,3.50
2022-10-28T05:20:16.843Z,3.63
2022-10-28T05:22:48.585Z,2.92
2022-10-28T05:25:15.112Z,3.30
2022-10-28T05:27:41.709Z,2.80
2022-10-28T05:30:09.059Z,3.10
2022-10-28T05:32:35.932Z,5.82
2022-10-28T05:35:02.691Z,3.13
2022-10-28T05:37:29.440Z,4.05
2022-10-28T05:39:55.922Z,4.78
2022-10-28T05:42:22.445Z,4.07
2022-10-28T05:44:48.935Z,3.28
2022-10-28T05:47:15.345Z,3.92
2022-10-28T05:49:41.811Z,5.68
2022-10-28T05:52:08.342Z,4.43
2022-10-28T05:54:37.819Z,3.40
2022-10-28T05:57:04.305Z,1.85
2022-10-28T05:59:30.868Z,3.65
2022-10-28T06:01:57.390Z,2.60
2022-10-28T06:04:23.936Z,2.97
2022-10-28T06:06:50.317Z,3.95
2022-10-28T06:11:41.691Z,3.40
2022-10-28T06:14:08.391Z,3.00
2022-10-28T06:16:36.124Z,4.75
2022-10-28T06:19:03.844Z,4.80
2022-10-28T06:21:37.682Z,1.55
2022-10-28T06:24:06.575Z,2.83
2022-10-28T06:26:37.373Z,5.07
2022-10-28T06:29:07.501Z,4.15
2022-10-28T06:31:40.264Z,6.57
2022-10-28T06:34:12.377Z,3.85
2022-10-28T06:36:40.276Z,5.57
2022-10-28T06:39:06.774Z,2.47
2022-10-28T06:41:33.349Z,7.80
2022-10-28T06:43:59.954Z,3.28
2022-10-28T06:46:26.943Z,3.22
2022-10-28T06:49:01.478Z,3.35
2022-10-28T06:51:27.904Z,4.88
2022-10-28T06:53:55.188Z,7.40
2022-10-28T06:56:22.054Z,5.25
2022-10-28T06:58:52.888Z,3.50
2022-10-28T07:01:23.271Z,6.68
2022-10-28T07:03:49.864Z,8.88
2022-10-28T07:06:17.912Z,5.07
2022-10-28T07:08:44.655Z,2.85
2022-10-28T07:11:12.152Z,6.95
2022-10-28T07:13:38.781Z,3.17
2022-10-28T07:16:05.477Z,5.93
2022-10-28T07:18:32.045Z,7.03
2022-10-28T07:20:59.981Z,6.28
2022-10-28T07:23:26.615Z,5.25
2022-10-28T07:25:55.242Z,5.35
2022-10-28T07:28:23.581Z,3.28
2022-10-28T07:30:50.145Z,5.53
2022-10-28T07:33:19.357Z,2.22
2022-10-28T07:35:49.368Z,4.00
2022-10-28T07:38:15.990Z,4.97
2022-10-28T07:40:42.458Z,5.25
2022-10-28T07:43:09.001Z,3.15
2022-10-28T07:45:36.932Z,3.75
2022-10-28T07:48:04.111Z,3.63
2022-10-28T07:50:33.502Z,3.03
2022-10-28T07:53:00.139Z,5.38
2022-10-28T07:55:26.588Z,3.30
2022-10-28T07:57:53.387Z,4.82
2022-10-28T08:00:20.067Z,4.13
2022-10-28T08:02:46.588Z,3.60
2022-10-28T08:05:13.450Z,3.58
2022-10-28T08:07:39.917Z,7.88
2022-10-28T08:10:08.067Z,5.10
2022-10-28T08:12:36.897Z,1.92
2022-10-28T08:15:10.724Z,4.93
2022-10-28T08:17:37.240Z,4.70
2022-10-28T08:20:04.783Z,6.00
2022-10-28T08:22:31.393Z,3.33
2022-10-28T08:24:58.330Z,6.85
2022-10-28T08:27:24.697Z,5.57
2022-10-28T08:29:53.396Z,5.53
2022-10-28T08:32:19.819Z,8.35
2022-10-28T08:34:46.254Z,8.07
2022-10-28T08:37:16.788Z,10.65
2022-10-28T08:39:43.393Z,14.65
2022-10-28T08:42:45.261Z,4.47
2022-10-28T08:45:23.386Z,10.18
2022-10-28T08:48:20.099Z,7.35
2022-10-28T08:50:54.301Z,8.10
2022-10-28T08:53:37.696Z,8.20
2022-10-28T08:56:16.576Z,8.52
2022-10-28T08:58:44.768Z,8.23
2022-10-28T09:01:23.850Z,5.63
2022-10-28T09:03:53.395Z,11.43
2022-10-28T09:06:20.141Z,9.07
2022-10-28T09:08:50.357Z,6.75
2022-10-28T09:11:43.479Z,8.43
2022-10-28T09:14:27.218Z,11.60
2022-10-28T09:17:21.365Z,10.02
2022-10-28T09:20:07.337Z,9.52
2022-10-28T09:22:41.820Z,7.63
2022-10-28T09:25:22.153Z,9.57
2022-10-28T09:28:06.271Z,11.68
2022-10-28T09:30:54.203Z,9.70
2022-10-28T09:33:35.824Z,7.82
2022-10-28T09:36:05.458Z,9.68
2022-10-28T09:38:35.407Z,7.88
2022-10-28T09:41:06.766Z,7.65
2022-10-28T09:43:40.337Z,8.10
2022-10-28T09:46:16.341Z,9.07
2022-10-28T09:48:49.344Z,6.10
2022-10-28T09:51:30.925Z,13.68
2022-10-28T09:54:01.466Z,13.65
2022-10-28T09:56:29.500Z,8.27
2022-10-28T09:58:59.745Z,6.50
2022-10-28T10:01:36.596Z,12.48
2022-10-28T10:04:16.027Z,9.00
2022-10-28T10:06:43.400Z,9.73
2022-10-28T10:09:42.068Z,13.57
2022-10-28T10:12:10.836Z,11.38
2022-10-28T10:14:52.873Z,11.95
2022-10-28T10:17:31.109Z,8.15
2022-10-28T10:20:04.350Z,13.95
2022-10-28T10:22:38.833Z,9.70
2022-10-28T10:25:29.833Z,7.55
2022-10-28T10:30:37.615Z,7.57
2022-10-28T10:33:05.806Z,11.75
2022-10-28T10:35:35.138Z,9.75
2022-10-28T10:38:11.167Z,7.63
2022-10-28T10:40:48.247Z,12.77
2022-10-28T10:43:22.965Z,10.70
2022-10-28T10:46:05.713Z,5.13
2022-10-28T10:48:36.489Z,8.07
2022-10-28T10:51:27.434Z,11.70
2022-10-28T10:54:01.468Z,10.98
2022-10-28T10:56:31.358Z,7.85
2022-10-28T10:59:04.123Z,6.07
2022-10-28T11:01:39.825Z,6.20
2022-10-28T11:04:08.397Z,7.05
2022-10-28T11:06:42.624Z,7.70
2022-10-28T11:09:20.521Z,7.05
2022-10-28T11:11:55.795Z,6.93
2022-10-28T11:14:22.267Z,9.80
2022-10-28T11:16:51.660Z,10.65
2022-10-28T11:19:32.624Z,10.93
2022-10-28T11:22:10.631Z,8.93
2022-10-28T11:24:49.196Z,8.00
2022-10-28T11:27:31.177Z,10.20
2022-10-28T11:30:01.363Z,8.50
2022-10-28T11:32:40.259Z,7.18
2022-10-28T11:35:42.834Z,8.60
2022-10-28T11:38:09.302Z,10.70
2022-10-28T11:41:01.074Z,6.95
2022-10-28T11:43:55.097Z,14.48
2022-10-28T11:46:34.648Z,7.85
2022-10-28T11:52:21.033Z,6.57
2022-10-28T11:54:56.849Z,6.20
2022-10-28T11:57:48.756Z,9.77
2022-10-28T12:00:43.365Z,9.70
2022-10-28T12:03:29.333Z,7.78
2022-10-28T12:06:23.579Z,6.32
2022-10-28T12:12:13.664Z,8.60
2022-10-28T12:14:46.012Z,6.38
2022-10-28T12:17:28.898Z,8.23
2022-10-28T12:20:25.714Z,8.30
2022-10-28T12:22:57.221Z,10.07
2022-10-28T12:25:30.947Z,7.10
2022-10-28T12:28:04.578Z,5.53
2022-10-28T12:30:35.658Z,7.57
2022-10-28T12:33:14.704Z,5.88
2022-10-28T12:35:47.413Z,5.07
2022-10-28T12:38:38.205Z,9.98
2022-10-28T12:41:17.519Z,6.95
2022-10-28T12:43:52.386Z,5.18
2022-10-28T12:46:29.058Z,3.42
2022-10-28T12:49:00.148Z,8.00
2022-10-28T12:51:40.779Z,5.57
2022-10-28T12:54:28.381Z,5.75
2022-10-28T12:57:01.590Z,6.68
2022-10-28T12:59:35.288Z,5.90
2022-10-28T13:02:04.344Z,5.28
2022-10-28T13:04:31.070Z,4.38
2022-10-28T13:07:25.106Z,3.45
2022-10-28T13:13:18.062Z,2.15
2022-10-28T13:15:58.702Z,2.88
2022-10-28T13:18:44.032Z,2.90
2022-10-28T13:21:42.821Z,2.95
2022-10-28T13:24:25.797Z,3.40
2022-10-28T13:26:52.582Z,3.85
2022-10-28T13:29:32.929Z,3.17
2022-10-28T13:31:59.691Z,2.75
2022-10-28T13:34:36.251Z,2.65
2022-10-28T13:37:05.557Z,3.75
2022-10-28T13:39:32.475Z,3.92
2022-10-28T13:42:14.690Z,4.28
2022-10-28T13:44:53.953Z,4.32
2022-10-28T13:47:27.364Z,3.15
2022-10-28T13:50:06.144Z,6.03
2022-10-28T13:52:33.741Z,5.85
2022-10-28T13:55:22.596Z,3.30
2022-10-28T13:57:58.092Z,4.70
2022-10-28T14:00:30.243Z,6.53
2022-10-28T14:03:00.052Z,3.17
2022-10-28T14:05:36.217Z,6.18
2022-10-28T14:08:06.201Z,6.18
2022-10-28T14:10:36.202Z,8.52
2022-10-28T14:13:17.175Z,7.05
2022-10-28T14:15:44.189Z,8.82
2022-10-28T14:18:37.360Z,11.25
2022-10-28T14:21:01.649Z,8.05
2022-10-28T14:23:28.312Z,10.00
2022-10-28T14:25:55.361Z,7.25
2022-10-28T14:28:27.749Z,10.90
2022-10-28T14:31:12.068Z,13.07
2022-10-28T14:33:41.526Z,11.02
2022-10-28T14:36:14.165Z,12.02
2022-10-28T14:39:17.903Z,9.07
2022-10-28T14:41:58.233Z,12.88
2022-10-28T14:44:54.449Z,9.25
2022-10-28T14:47:51.745Z,9.77
2022-10-28T14:50:26.214Z,12.18
2022-10-28T14:52:55.477Z,11.30
2022-10-28T14:55:31.457Z,9.80
2022-10-28T14:58:21.658Z,15.73
2022-10-28T15:01:18.718Z,15.48
2022-10-28T15:04:11.032Z,10.18
2022-10-28T15:06:42.729Z,14.30
2022-10-28T15:09:21.932Z,23.48
2022-10-28T15:12:01.105Z,17.30
2022-10-28T15:14:42.565Z,14.80
2022-10-28T15:17:15.669Z,19.48
2022-10-28T15:19:43.468Z,23.52
2022-10-28T15:22:41.718Z,19.50
2022-10-28T15:25:13.646Z,19.35
2022-10-28T15:27:46.512Z,15.70
2022-10-28T15:30:13.261Z,12.15
2022-10-28T15:32:39.724Z,13.10
2022-10-28T15:35:44.754Z,16.50
2022-10-28T15:38:29.556Z,15.50
2022-10-28T15:40:56.966Z,10.50
2022-10-28T15:43:31.075Z,9.98
2022-10-28T15:46:10.858Z,8.93
2022-10-28T15:48:37.601Z,16.88
2022-10-28T15:51:12.599Z,10.80
2022-10-28T15:53:40.729Z,16.70
2022-10-28T15:56:19.553Z,11.82
2022-10-28T15:59:01.564Z,10.35
2022-10-28T16:01:40.101Z,14.00
2022-10-28T16:04:46.919Z,14.25
2022-10-28T16:07:13.393Z,13.23
2022-10-28T16:09:48.570Z,12.60
2022-10-28T16:12:18.726Z,15.18
2022-10-28T16:14:58.979Z,9.98
2022-10-28T16:17:31.132Z,10.93
2022-10-28T16:20:01.064Z,12.82
2022-10-28T16:22:30.103Z,15.45
2022-10-28T16:24:57.754Z,19.95
2022-10-28T16:27:31.048Z,16.02
2022-10-28T16:29:57.922Z,17.17
2022-10-28T16:32:33.921Z,12.68
2022-10-28T16:35:01.896Z,14.32
2022-10-28T16:37:31.354Z,11.55
2022-10-28T16:39:57.792Z,17.23
2022-10-28T16:42:24.462Z,10.48
2022-10-28T16:44:50.923Z,11.02
2022-10-28T16:47:22.232Z,10.63
2022-10-28T16:49:52.587Z,10.07
2022-10-28T16:52:24.934Z,9.88
2022-10-28T16:54:51.448Z,9.98
2022-10-28T16:57:20.811Z,7.43
2022-10-28T16:59:47.368Z,7.97
2022-10-28T17:02:19.205Z,7.40
2022-10-28T17:04:45.754Z,7.93
2022-10-28T17:07:16.150Z,8.60
2022-10-28T17:09:42.878Z,6.82
2022-10-28T17:12:18.432Z,7.28
2022-10-28T17:14:45.109Z,4.97
2022-10-28T17:17:12.140Z,5.97
2022-10-28T17:19:40.633Z,4.50
2022-10-28T17:22:09.230Z,6.43
2022-10-28T17:24:36.652Z,4.25
2022-10-28T17:27:03.540Z,5.05
2022-10-28T17:29:29.988Z,6.40
2022-10-28T17:31:56.378Z,10.20
2022-10-28T17:34:22.750Z,6.03
2022-10-28T17:36:49.171Z,6.47
2022-10-28T17:39:19.589Z,5.68
2022-10-28T17:41:48.408Z,10.13
2022-10-28T17:44:15.964Z,6.30
2022-10-28T17:46:42.396Z,6.28
2022-10-28T17:49:08.839Z,5.43
2022-10-28T17:51:36.278Z,7.20
2022-10-28T17:54:06.045Z,4.25
2022-10-28T17:56:33.202Z,4.20
2022-10-28T17:59:01.555Z,4.50
2022-10-28T18:01:29.603Z,4.18
2022-10-28T18:03:56.119Z,6.10
2022-10-28T18:06:22.632Z,8.15
2022-10-28T18:11:20.767Z,5.53
2022-10-28T18:13:49.843Z,5.47
2022-10-28T18:16:28.360Z,12.05
2022-10-28T18:18:55.912Z,11.68
2022-10-28T18:21:23.321Z,7.13
2022-10-28T18:23:54.106Z,7.10
2022-10-28T18:26:21.385Z,12.93
2022-10-28T18:28:49.084Z,6.05
2022-10-28T18:31:20.401Z,8.38
2022-10-28T18:33:47.197Z,11.48
2022-10-28T18:36:16.583Z,6.20
2022-10-28T18:38:43.156Z,9.55
2022-10-28T18:41:14.954Z,10.95
2022-10-28T18:43:41.758Z,6.47
2022-10-28T18:46:08.534Z,5.80
2022-10-28T18:48:35.245Z,4.25
2022-10-28T18:51:11.367Z,5.97
2022-10-28T18:53:39.902Z,11.60
2022-10-28T18:56:08.283Z,10.57
2022-10-28T18:58:35.327Z,6.80
2022-10-28T19:01:16.500Z,9.73
2022-10-28T19:03:44.228Z,7.20
2022-10-28T19:06:13.698Z,4.55
2022-10-28T19:08:40.828Z,9.98
2022-10-28T19:11:09.541Z,8.27
2022-10-28T19:13:38.339Z,5.72
2022-10-28T19:16:05.693Z,5.35
2022-10-28T19:18:35.347Z,9.88
2022-10-28T19:21:08.201Z,10.05
2022-10-28T19:23:34.972Z,4.53
2022-10-28T19:26:01.495Z,7.72
2022-10-28T19:28:28.642Z,8.80
2022-10-28T19:33:45.191Z,10.77
2022-10-28T19:36:23.495Z,7.68
2022-10-28T19:38:53.728Z,8.70
2022-10-28T19:41:23.097Z,5.75
2022-10-28T19:43:57.773Z,11.02
2022-10-28T19:46:27.461Z,10.48
2022-10-28T19:48:57.174Z,7.65
2022-10-28T19:51:27.372Z,8.20
2022-10-28T19:53:57.124Z,9.43
2022-10-28T19:56:23.867Z,4.63
2022-10-28T20:01:53.876Z,8.90
2022-10-28T20:04:21.527Z,9.38
2022-10-28T20:06:48.034Z,8.32
2022-10-28T20:09:16.761Z,6.75
2022-10-28T20:11:43.328Z,5.82
2022-10-28T20:14:12.466Z,7.97
2022-10-28T20:16:42.446Z,10.77
2022-10-28T20:19:09.374Z,11.35
2022-10-28T20:21:37.203Z,7.28
2022-10-28T20:24:05.640Z,9.73
2022-10-28T20:26:34.476Z,10.63
2022-10-28T20:29:03.982Z,10.15
2022-10-28T20:31:32.397Z,12.32
2022-10-28T20:34:01.602Z,8.80
2022-10-28T20:36:32.804Z,9.05
2022-10-28T20:39:05.528Z,9.50
2022-10-28T20:41:33.979Z,9.07
2022-10-28T20:44:01.535Z,7.80
2022-10-28T20:46:30.313Z,7.05
2022-10-28T20:49:00.672Z,6.03
2022-10-28T20:51:30.025Z,8.00
2022-10-28T20:53:56.902Z,6.10
2022-10-28T20:56:25.520Z,7.50
2022-10-28T20:58:52.690Z,9.18
2022-10-28T21:01:27.373Z,7.43
2022-10-28T21:03:56.109Z,6.97
2022-10-28T21:06:24.661Z,10.23
2022-10-28T21:08:52.083Z,7.10
2022-10-28T21:11:18.573Z,8.70
2022-10-28T21:13:51.781Z,15.60
2022-10-28T21:16:18.356Z,8.10
2022-10-28T21:18:44.907Z,6.15
2022-10-28T21:21:12.046Z,9.77
2022-10-28T21:23:38.500Z,7.40
2022-10-28T21:26:07.104Z,9.32
2022-10-28T21:28:36.769Z,10.43
2022-10-28T21:31:05.813Z,7.35
2022-10-28T21:33:34.396Z,9.88
2022-10-28T21:36:03.201Z,5.65
2022-10-28T21:38:32.281Z,9.85
2022-10-28T21:41:14.448Z,5.22
2022-10-28T21:43:43.247Z,6.30
2022-10-28T21:46:10.771Z,10.52
2022-10-28T21:48:37.831Z,5.38
2022-10-28T21:51:13.423Z,6.72
2022-10-28T21:53:41.526Z,8.85
2022-10-28T21:56:16.319Z,7.68
2022-10-28T21:58:44.170Z,5.68
2022-10-28T22:01:16.660Z,8.50
2022-10-28T22:06:12.121Z,7.32
2022-10-28T22:08:42.042Z,8.27
2022-10-28T22:11:12.796Z,9.35
2022-10-28T22:13:39.341Z,9.45
2022-10-28T22:16:08.306Z,8.32
2022-10-28T22:18:36.485Z,4.47
2022-10-28T22:21:09.208Z,6.65
2022-10-28T22:23:36.785Z,7.93
2022-10-28T22:26:08.611Z,5.55
2022-10-28T22:28:35.284Z,5.85
2022-10-28T22:31:07.559Z,7.30
2022-10-28T22:33:34.369Z,3.85
2022-10-28T22:36:02.750Z,3.72
2022-10-28T22:38:31.996Z,4.68
2022-10-28T22:41:07.997Z,6.07
2022-10-28T22:43:37.792Z,7.43
2022-10-28T22:46:04.688Z,3.47
2022-10-28T22:48:31.984Z,5.60
2022-10-28T22:50:59.484Z,5.25
2022-10-28T22:53:32.712Z,5.50
2022-10-28T22:55:59.180Z,4.57
2022-10-28T22:58:26.614Z,6.85
2022-10-28T23:00:54.256Z,6.72
2022-10-28T23:03:20.743Z,4.18
2022-10-28T23:05:49.455Z,4.35
2022-10-28T23:08:16.383Z,4.25
2022-10-28T23:10:42.943Z,7.07
2022-10-28T23:13:14.547Z,2.92
2022-10-28T23:15:41.000Z,8.07
2022-10-28T23:18:09.714Z,4.57
2022-10-28T23:20:37.144Z,3.72
2022-10-28T23:23:03.592Z,10.95
2022-10-28T23:25:30.107Z,5.28
2022-10-28T23:27:57.027Z,3.97
2022-10-28T23:30:26.461Z,3.90
2022-10-28T23:32:52.983Z,4.03
2022-10-28T23:35:19.457Z,3.75
2022-10-28T23:37:45.905Z,2.45
2022-10-28T23:40:12.425Z,5.18
2022-10-28T23:42:41.549Z,4.25
2022-10-28T23:45:09.568Z,6.97
2022-10-28T23:47:36.407Z,4.95
2022-10-28T23:50:07.846Z,4.78
2022-10-28T23:52:34.296Z,6.53
2022-10-28T23:55:00.688Z,3.65
2022-10-28T23:57:27.130Z,6.60
2022-10-28T23:59:54.084Z,6.45
